createdAt,value
2023-05-07T00:01:50.704Z,15.00
2023-05-07T00:04:17.652Z,15.10
2023-05-07T00:06:44.529Z,15.00
2023-05-07T00:09:11.832Z,14.90
2023-05-07T00:11:38.624Z,15.00
2023-05-07T00:14:05.752Z,15.00
2023-05-07T00:16:32.673Z,15.00
2023-05-07T00:18:59.618Z,15.00
2023-05-07T00:21:27.751Z,15.10
2023-05-07T00:23:55.352Z,15.10
2023-05-07T00:26:22.729Z,15.20
2023-05-07T00:28:49.674Z,15.20
2023-05-07T00:31:16.604Z,15.20
2023-05-07T00:33:43.392Z,15.20
2023-05-07T00:36:10.651Z,15.10
2023-05-07T00:38:37.431Z,15.20
2023-05-07T00:41:04.441Z,15.20
2023-05-07T00:43:31.238Z,15.10
2023-05-07T00:45:58.087Z,15.10
2023-05-07T00:48:25.957Z,15.10
2023-05-07T00:50:53.101Z,15.00
2023-05-07T00:53:20.197Z,15.10
2023-05-07T00:55:47.148Z,15.10
2023-05-07T00:58:14.073Z,15.10
2023-05-07T01:00:41.624Z,15.10
2023-05-07T01:03:08.490Z,15.10
2023-05-07T01:05:36.294Z,15.10
2023-05-07T01:08:05.084Z,15.10
2023-05-07T01:10:31.928Z,15.00
2023-05-07T01:13:01.147Z,14.90
2023-05-07T01:15:28.202Z,14.80
2023-05-07T01:17:55.006Z,14.80
2023-05-07T01:20:22.125Z,14.70
2023-05-07T01:22:49.599Z,14.70
2023-05-07T01:25:17.618Z,14.70
2023-05-07T01:27:44.341Z,14.60
2023-05-07T01:30:11.857Z,14.60
2023-05-07T01:32:41.247Z,14.60
2023-05-07T01:35:11.964Z,14.60
2023-05-07T01:37:40.207Z,14.50
2023-05-07T01:40:08.367Z,14.50
2023-05-07T01:42:35.388Z,14.50
2023-05-07T01:45:02.095Z,14.50
2023-05-07T01:47:30.172Z,14.50
2023-05-07T01:49:58.048Z,14.50
2023-05-07T01:52:26.114Z,14.50
2023-05-07T01:54:52.886Z,14.50
2023-05-07T01:57:19.676Z,14.40
2023-05-07T01:59:46.376Z,14.30
2023-05-07T02:02:13.230Z,14.30
2023-05-07T02:04:40.292Z,14.30
2023-05-07T02:07:07.051Z,14.30
2023-05-07T02:09:33.796Z,14.30
2023-05-07T02:12:00.827Z,14.30
2023-05-07T02:14:27.618Z,14.40
2023-05-07T02:16:54.411Z,14.40
2023-05-07T02:19:22.182Z,14.40
2023-05-07T02:21:49.213Z,14.30
2023-05-07T02:24:16.068Z,14.30
2023-05-07T02:26:42.835Z,14.30
2023-05-07T02:29:09.587Z,14.30
2023-05-07T02:31:36.340Z,14.30
2023-05-07T02:34:03.248Z,14.30
2023-05-07T02:36:29.945Z,14.30
2023-05-07T02:38:56.867Z,14.40
2023-05-07T02:41:23.656Z,14.40
2023-05-07T02:43:50.505Z,14.40
2023-05-07T02:46:17.283Z,14.40
2023-05-07T02:48:44.137Z,14.40
2023-05-07T02:51:10.894Z,14.40
2023-05-07T02:53:37.792Z,14.50
2023-05-07T02:56:04.826Z,14.50
2023-05-07T02:58:31.570Z,14.50
2023-05-07T03:00:58.494Z,14.40
2023-05-07T03:03:25.454Z,14.40
2023-05-07T03:05:52.220Z,14.40
2023-05-07T03:08:18.925Z,14.50
2023-05-07T03:10:45.898Z,14.50
2023-05-07T03:13:12.845Z,14.50
2023-05-07T03:15:39.735Z,14.50
2023-05-07T03:18:06.703Z,14.40
2023-05-07T03:20:33.719Z,14.30
2023-05-07T03:23:00.663Z,14.30
2023-05-07T03:25:27.452Z,14.30
2023-05-07T03:27:54.257Z,14.20
2023-05-07T03:30:21.223Z,14.20
2023-05-07T03:32:47.986Z,14.20
2023-05-07T03:35:15.156Z,14.30
2023-05-07T03:37:41.929Z,14.20
2023-05-07T03:40:11.556Z,14.10
2023-05-07T03:42:38.776Z,14.10
2023-05-07T03:45:06.276Z,14.10
2023-05-07T03:47:33.075Z,13.90
2023-05-07T03:50:00.440Z,13.80
2023-05-07T03:52:27.365Z,13.90
2023-05-07T03:54:54.712Z,13.80
2023-05-07T03:57:21.630Z,13.80
2023-05-07T03:59:48.450Z,13.70
2023-05-07T04:02:15.437Z,13.70
2023-05-07T04:04:42.237Z,13.80
2023-05-07T04:07:08.976Z,13.80
2023-05-07T04:09:35.798Z,13.80
2023-05-07T04:12:02.552Z,13.70
2023-05-07T04:14:29.616Z,13.60
2023-05-07T04:16:56.406Z,13.60
2023-05-07T04:19:23.466Z,13.50
2023-05-07T04:21:50.643Z,13.30
2023-05-07T04:24:17.497Z,13.30
2023-05-07T04:26:44.214Z,13.30
2023-05-07T04:29:10.987Z,13.30
2023-05-07T04:31:37.851Z,13.20
2023-05-07T04:34:04.673Z,13.20
2023-05-07T04:36:31.850Z,13.20
2023-05-07T04:38:58.777Z,13.20
2023-05-07T04:41:26.002Z,13.20
2023-05-07T04:43:52.850Z,13.30
2023-05-07T04:46:19.709Z,13.40
2023-05-07T04:48:46.610Z,13.40
2023-05-07T04:51:14.429Z,13.50
2023-05-07T04:53:41.527Z,13.50
2023-05-07T04:56:08.279Z,13.60
2023-05-07T04:58:35.128Z,13.70
2023-05-07T05:01:02.572Z,13.70
2023-05-07T05:03:29.655Z,13.80
2023-05-07T05:05:56.520Z,13.80
2023-05-07T05:08:23.348Z,13.90
2023-05-07T05:10:51.037Z,14.00
2023-05-07T05:13:18.066Z,14.10
2023-05-07T05:15:44.972Z,14.10
2023-05-07T05:18:11.737Z,14.10
2023-05-07T05:20:38.500Z,14.10
2023-05-07T05:23:05.225Z,14.20
2023-05-07T05:25:32.076Z,14.30
2023-05-07T05:27:58.818Z,14.50
2023-05-07T05:30:25.716Z,14.50
2023-05-07T05:32:52.741Z,14.60
2023-05-07T05:35:19.625Z,14.80
2023-05-07T05:37:46.362Z,15.00
2023-05-07T05:40:13.520Z,15.30
2023-05-07T05:42:40.606Z,15.40
2023-05-07T05:45:07.996Z,15.70
2023-05-07T05:47:34.829Z,16.10
2023-05-07T05:50:01.635Z,16.60
2023-05-07T05:52:28.452Z,17.10
2023-05-07T05:54:55.393Z,17.30
2023-05-07T05:57:22.228Z,17.70
2023-05-07T05:59:49.063Z,18.00
2023-05-07T06:02:15.974Z,18.10
2023-05-07T06:04:43.721Z,18.20
2023-05-07T06:07:10.806Z,18.40
2023-05-07T06:09:37.616Z,18.40
2023-05-07T06:12:04.564Z,18.60
2023-05-07T06:14:31.525Z,19.00
2023-05-07T06:16:58.625Z,18.70
2023-05-07T06:19:27.597Z,18.80
2023-05-07T06:21:54.648Z,19.20
2023-05-07T06:24:21.476Z,19.60
2023-05-07T06:26:48.275Z,20.10
2023-05-07T06:29:15.120Z,20.20
2023-05-07T06:31:42.143Z,20.20
2023-05-07T06:34:09.214Z,20.60
2023-05-07T06:36:36.593Z,20.50
2023-05-07T06:39:03.461Z,20.30
2023-05-07T06:41:30.198Z,20.20
2023-05-07T06:43:56.954Z,20.40
2023-05-07T06:46:23.859Z,20.70
2023-05-07T06:48:50.676Z,21.10
2023-05-07T06:51:17.468Z,21.30
2023-05-07T06:53:44.232Z,21.80
2023-05-07T06:56:11.030Z,22.20
2023-05-07T06:58:38.547Z,22.60
2023-05-07T07:01:05.449Z,22.60
2023-05-07T07:03:32.178Z,22.60
2023-05-07T07:05:58.981Z,22.70
2023-05-07T07:08:25.796Z,22.60
2023-05-07T07:10:52.507Z,22.80
2023-05-07T07:13:20.253Z,22.00
2023-05-07T07:15:47.156Z,21.90
2023-05-07T07:18:13.982Z,21.90
2023-05-07T07:20:40.949Z,22.50
2023-05-07T07:23:07.851Z,22.90
2023-05-07T07:25:34.697Z,23.30
2023-05-07T07:28:01.733Z,23.50
2023-05-07T07:30:28.678Z,24.00
2023-05-07T07:32:58.931Z,24.00
2023-05-07T07:35:25.898Z,24.00
2023-05-07T07:37:52.767Z,24.10
2023-05-07T07:40:19.761Z,24.30
2023-05-07T07:42:46.495Z,24.10
2023-05-07T07:45:13.605Z,23.70
2023-05-07T07:47:41.437Z,23.90
2023-05-07T07:50:09.074Z,24.00
2023-05-07T07:52:36.083Z,24.10
2023-05-07T07:55:03.360Z,24.20
2023-05-07T07:57:30.179Z,23.70
2023-05-07T07:59:57.049Z,23.70
2023-05-07T08:02:24.100Z,23.90
2023-05-07T08:04:51.007Z,23.80
2023-05-07T08:07:19.783Z,24.00
2023-05-07T08:09:46.543Z,24.20
2023-05-07T08:12:13.723Z,24.00
2023-05-07T08:14:40.668Z,24.50
2023-05-07T08:17:07.689Z,24.50
2023-05-07T08:19:34.473Z,24.50
2023-05-07T08:22:01.380Z,24.30
2023-05-07T08:24:28.086Z,24.80
2023-05-07T08:26:54.886Z,24.40
2023-05-07T08:29:21.595Z,24.20
2023-05-07T08:31:48.350Z,24.30
2023-05-07T08:34:23.672Z,23.90
2023-05-07T08:36:50.451Z,23.80
2023-05-07T08:39:17.819Z,23.90
2023-05-07T08:41:47.279Z,23.90
2023-05-07T08:44:17.558Z,24.00
2023-05-07T08:46:48.017Z,23.50
2023-05-07T08:49:16.869Z,23.70
2023-05-07T08:51:43.698Z,23.30
2023-05-07T08:54:11.950Z,23.00
2023-05-07T08:56:38.703Z,23.30
2023-05-07T08:59:06.190Z,23.60
2023-05-07T09:01:32.974Z,23.60
2023-05-07T09:03:59.870Z,23.20
2023-05-07T09:06:27.654Z,23.70
2023-05-07T09:08:55.583Z,24.00
2023-05-07T09:11:25.810Z,23.80
2023-05-07T09:13:57.290Z,24.30
2023-05-07T09:16:25.095Z,24.10
2023-05-07T09:18:56.117Z,23.70
2023-05-07T09:21:24.050Z,23.70
2023-05-07T09:23:55.874Z,23.70
2023-05-07T09:26:23.427Z,23.70
2023-05-07T09:28:50.270Z,24.10
2023-05-07T09:31:19.524Z,24.10
2023-05-07T09:33:47.957Z,24.20
2023-05-07T09:36:15.222Z,24.30
2023-05-07T09:38:42.677Z,24.20
2023-05-07T09:41:13.701Z,24.20
2023-05-07T09:43:41.523Z,23.90
2023-05-07T09:46:16.126Z,24.10
2023-05-07T09:48:44.724Z,24.10
2023-05-07T09:51:24.862Z,24.20
2023-05-07T09:53:53.941Z,24.30
2023-05-07T09:56:22.349Z,24.30
2023-05-07T09:58:50.300Z,24.10
2023-05-07T10:01:20.375Z,24.00
2023-05-07T10:03:48.005Z,24.10
2023-05-07T10:06:16.110Z,24.00
2023-05-07T10:08:44.336Z,23.80
2023-05-07T10:11:11.565Z,24.10
2023-05-07T10:13:39.165Z,24.10
2023-05-07T10:16:06.593Z,24.00
2023-05-07T10:18:34.393Z,23.90
2023-05-07T10:21:23.977Z,24.40
2023-05-07T10:24:15.012Z,24.70
2023-05-07T10:26:49.992Z,24.80
2023-05-07T10:29:35.867Z,24.90
2023-05-07T10:32:31.183Z,24.70
2023-05-07T10:35:01.891Z,24.50
2023-05-07T10:37:29.998Z,24.70
2023-05-07T10:39:58.130Z,24.90
2023-05-07T10:42:25.250Z,25.10
2023-05-07T10:44:52.042Z,24.90
2023-05-07T10:47:19.959Z,24.30
2023-05-07T10:49:46.773Z,24.50
2023-05-07T10:52:21.286Z,24.70
2023-05-07T10:54:48.347Z,24.40
2023-05-07T10:57:35.176Z,24.10
2023-05-07T11:00:02.166Z,23.80
2023-05-07T11:03:03.409Z,23.80
2023-05-07T11:05:32.721Z,23.60
2023-05-07T11:08:05.068Z,23.80
2023-05-07T11:10:54.258Z,23.60
2023-05-07T11:13:56.732Z,23.70
2023-05-07T11:16:25.477Z,24.00
2023-05-07T11:18:54.567Z,23.80
2023-05-07T11:21:41.541Z,23.70
2023-05-07T11:24:10.321Z,23.90
2023-05-07T11:26:50.993Z,23.70
2023-05-07T11:29:22.212Z,23.50
2023-05-07T11:31:54.028Z,23.30
2023-05-07T11:34:26.071Z,23.40
2023-05-07T11:36:54.151Z,23.40
2023-05-07T11:39:28.782Z,23.30
2023-05-07T11:41:55.915Z,23.30
2023-05-07T11:44:22.706Z,23.40
2023-05-07T11:46:49.909Z,23.10
2023-05-07T11:49:16.923Z,23.10
2023-05-07T11:51:44.075Z,22.80
2023-05-07T11:54:12.413Z,22.70
2023-05-07T11:56:40.050Z,22.60
2023-05-07T11:59:07.262Z,22.60
2023-05-07T12:01:37.133Z,22.70
2023-05-07T12:04:05.622Z,22.70
2023-05-07T12:06:32.543Z,22.90
2023-05-07T12:08:59.392Z,22.90
2023-05-07T12:11:27.130Z,22.90
2023-05-07T12:13:59.024Z,23.00
2023-05-07T12:16:27.187Z,22.90
2023-05-07T12:18:56.137Z,23.10
2023-05-07T12:21:24.370Z,23.20
2023-05-07T12:23:51.622Z,23.20
2023-05-07T12:26:20.056Z,23.10
2023-05-07T12:28:47.559Z,23.00
2023-05-07T12:31:15.812Z,22.90
2023-05-07T12:33:43.228Z,22.80
2023-05-07T12:36:13.360Z,22.90
2023-05-07T12:38:41.992Z,22.90
2023-05-07T12:41:11.095Z,22.90
2023-05-07T12:43:38.027Z,23.00
2023-05-07T12:46:08.172Z,22.80
2023-05-07T12:48:37.815Z,22.80
2023-05-07T12:51:06.308Z,22.90
2023-05-07T12:53:33.161Z,22.80
2023-05-07T12:56:00.886Z,23.10
2023-05-07T12:58:28.233Z,23.20
2023-05-07T13:00:59.879Z,23.20
2023-05-07T13:03:33.061Z,23.20
2023-05-07T13:06:03.103Z,23.30
2023-05-07T13:08:41.366Z,23.20
2023-05-07T13:11:09.442Z,22.90
2023-05-07T13:13:37.995Z,22.90
2023-05-07T13:16:06.593Z,23.00
2023-05-07T13:18:34.887Z,22.90
2023-05-07T13:21:02.588Z,23.00
2023-05-07T13:23:29.751Z,23.10
2023-05-07T13:25:57.225Z,23.20
2023-05-07T13:28:27.315Z,23.20
2023-05-07T13:30:55.776Z,23.10
2023-05-07T13:33:22.780Z,23.30
2023-05-07T13:35:49.551Z,23.20
2023-05-07T13:38:17.254Z,23.10
2023-05-07T13:40:44.103Z,23.10
2023-05-07T13:43:11.673Z,23.20
2023-05-07T13:45:38.774Z,23.20
2023-05-07T13:48:06.039Z,23.20
2023-05-07T13:50:32.855Z,23.20
2023-05-07T13:52:59.718Z,22.90
2023-05-07T13:55:26.836Z,22.90
2023-05-07T13:58:02.351Z,23.10
2023-05-07T14:00:30.073Z,23.20
2023-05-07T14:02:57.655Z,23.20
2023-05-07T14:05:25.520Z,23.30
2023-05-07T14:07:53.157Z,23.20
2023-05-07T14:10:20.571Z,23.50
2023-05-07T14:12:47.858Z,23.40
2023-05-07T14:15:15.284Z,23.50
2023-05-07T14:17:42.006Z,23.40
2023-05-07T14:20:10.131Z,23.10
2023-05-07T14:22:37.225Z,23.10
2023-05-07T14:25:07.231Z,23.30
2023-05-07T14:27:34.510Z,23.40
2023-05-07T14:30:01.472Z,23.30
2023-05-07T14:32:28.351Z,23.20
2023-05-07T14:34:55.200Z,23.20
2023-05-07T14:37:21.951Z,23.20
2023-05-07T14:39:50.220Z,23.20
2023-05-07T14:42:18.028Z,23.20
2023-05-07T14:44:46.677Z,23.10
2023-05-07T14:47:13.964Z,23.10
2023-05-07T14:49:41.805Z,23.20
2023-05-07T14:52:11.106Z,23.10
2023-05-07T14:54:39.265Z,23.10
2023-05-07T14:57:07.636Z,23.10
2023-05-07T14:59:34.865Z,23.10
2023-05-07T15:02:04.533Z,23.20
2023-05-07T15:04:33.081Z,23.20
2023-05-07T15:06:59.855Z,23.00
2023-05-07T15:09:26.949Z,22.80
2023-05-07T15:11:53.706Z,22.70
2023-05-07T15:14:22.757Z,22.80
2023-05-07T15:16:50.149Z,22.80
2023-05-07T15:19:18.076Z,22.80
2023-05-07T15:21:44.988Z,22.50
2023-05-07T15:24:11.814Z,22.50
2023-05-07T15:26:38.594Z,22.50
2023-05-07T15:29:11.094Z,22.50
2023-05-07T15:31:41.162Z,22.70
2023-05-07T15:34:08.115Z,22.70
2023-05-07T15:36:34.929Z,22.80
2023-05-07T15:39:03.739Z,22.90
2023-05-07T15:41:30.854Z,22.80
2023-05-07T15:43:57.611Z,22.80
2023-05-07T15:46:26.000Z,22.70
2023-05-07T15:48:56.667Z,22.70
2023-05-07T15:51:23.704Z,22.60
2023-05-07T15:53:52.187Z,22.40
2023-05-07T15:56:19.072Z,22.40
2023-05-07T15:58:46.441Z,22.40
2023-05-07T16:01:13.296Z,22.30
2023-05-07T16:03:41.180Z,22.20
2023-05-07T16:06:08.454Z,22.30
2023-05-07T16:08:35.469Z,22.20
2023-05-07T16:11:02.227Z,22.10
2023-05-07T16:13:28.984Z,22.00
2023-05-07T16:15:59.662Z,22.00
2023-05-07T16:18:26.458Z,22.00
2023-05-07T16:20:54.354Z,21.90
2023-05-07T16:23:21.657Z,21.80
2023-05-07T16:25:49.742Z,21.80
2023-05-07T16:28:16.820Z,21.80
2023-05-07T16:30:43.860Z,21.90
2023-05-07T16:33:10.902Z,22.00
2023-05-07T16:35:37.696Z,21.80
2023-05-07T16:38:09.941Z,21.80
2023-05-07T16:40:39.356Z,21.70
2023-05-07T16:43:06.375Z,21.80
2023-05-07T16:45:33.188Z,21.70
2023-05-07T16:48:00.065Z,21.60
2023-05-07T16:50:26.799Z,21.70
2023-05-07T16:52:53.526Z,21.60
2023-05-07T16:55:20.429Z,21.50
2023-05-07T16:57:47.183Z,21.50
2023-05-07T17:00:14.720Z,21.50
2023-05-07T17:02:41.651Z,21.50
2023-05-07T17:05:09.029Z,21.40
2023-05-07T17:07:36.097Z,21.40
2023-05-07T17:10:03.424Z,21.40
2023-05-07T17:12:31.634Z,21.40
2023-05-07T17:14:58.412Z,21.50
2023-05-07T17:17:25.331Z,21.50
2023-05-07T17:19:52.236Z,21.60
2023-05-07T17:22:19.012Z,21.50
2023-05-07T17:24:45.849Z,21.50
2023-05-07T17:27:12.585Z,21.50
2023-05-07T17:29:39.479Z,21.50
2023-05-07T17:32:08.341Z,21.30
2023-05-07T17:34:35.457Z,21.30
2023-05-07T17:37:02.794Z,21.20
2023-05-07T17:39:29.659Z,21.20
2023-05-07T17:41:56.720Z,21.10
2023-05-07T17:44:23.638Z,21.10
2023-05-07T17:46:50.815Z,20.90
2023-05-07T17:49:17.701Z,20.80
2023-05-07T17:51:54.179Z,20.90
2023-05-07T17:54:24.303Z,20.90
2023-05-07T17:56:51.386Z,20.80
2023-05-07T17:59:18.322Z,20.70
2023-05-07T18:01:45.300Z,20.70
2023-05-07T18:04:12.133Z,20.50
2023-05-07T18:06:39.810Z,20.50
2023-05-07T18:09:06.654Z,20.50
2023-05-07T18:11:33.752Z,20.50
2023-05-07T18:14:01.123Z,20.40
2023-05-07T18:16:28.028Z,20.40
2023-05-07T18:18:55.458Z,20.50
2023-05-07T18:21:22.673Z,20.50
2023-05-07T18:23:49.708Z,20.50
2023-05-07T18:26:16.915Z,20.50
2023-05-07T18:28:43.724Z,20.50
2023-05-07T18:31:10.907Z,20.50
2023-05-07T18:33:37.761Z,20.50
2023-05-07T18:36:04.846Z,20.30
2023-05-07T18:38:32.104Z,20.30
2023-05-07T18:41:05.571Z,20.40
2023-05-07T18:43:34.073Z,20.30
2023-05-07T18:46:01.139Z,20.20
2023-05-07T18:48:28.163Z,20.20
2023-05-07T18:50:54.938Z,20.30
2023-05-07T18:53:21.669Z,20.40
2023-05-07T18:55:52.657Z,20.40
2023-05-07T18:58:20.205Z,20.50
2023-05-07T19:00:50.802Z,20.50
2023-05-07T19:03:17.750Z,20.50
2023-05-07T19:05:45.533Z,20.40
2023-05-07T19:08:12.592Z,20.40
2023-05-07T19:10:39.458Z,20.30
2023-05-07T19:13:06.793Z,20.20
2023-05-07T19:15:33.805Z,20.10
2023-05-07T19:18:00.766Z,20.00
2023-05-07T19:20:28.174Z,19.90
2023-05-07T19:22:55.072Z,19.80
2023-05-07T19:25:21.828Z,19.80
2023-05-07T19:27:48.787Z,19.70
2023-05-07T19:30:15.653Z,19.60
2023-05-07T19:32:42.600Z,19.50
2023-05-07T19:35:09.831Z,19.40
2023-05-07T19:37:36.594Z,19.40
2023-05-07T19:40:05.300Z,19.30
2023-05-07T19:42:32.445Z,19.10
2023-05-07T19:44:59.188Z,19.00
2023-05-07T19:47:26.559Z,18.80
2023-05-07T19:49:53.382Z,18.60
2023-05-07T19:52:20.124Z,18.60
2023-05-07T19:54:47.360Z,18.50
2023-05-07T19:57:15.357Z,18.40
2023-05-07T19:59:42.320Z,18.30
2023-05-07T20:02:09.185Z,18.20
2023-05-07T20:04:38.214Z,18.10
2023-05-07T20:07:05.892Z,18.00
2023-05-07T20:09:32.763Z,18.00
2023-05-07T20:11:59.593Z,17.90
2023-05-07T20:14:34.585Z,17.80
2023-05-07T20:17:01.390Z,17.80
2023-05-07T20:19:28.196Z,17.70
2023-05-07T20:21:54.966Z,17.70
2023-05-07T20:24:22.191Z,17.70
2023-05-07T20:26:49.125Z,17.80
2023-05-07T20:29:15.918Z,17.90
2023-05-07T20:31:43.864Z,17.90
2023-05-07T20:34:10.781Z,17.90
2023-05-07T20:36:37.842Z,17.90
2023-05-07T20:39:04.663Z,17.90
2023-05-07T20:41:31.410Z,17.90
2023-05-07T20:43:58.555Z,17.90
2023-05-07T20:46:27.428Z,17.90
2023-05-07T20:48:54.419Z,17.90
2023-05-07T20:51:21.225Z,17.90
2023-05-07T20:53:48.217Z,18.00
2023-05-07T20:56:15.577Z,18.00
2023-05-07T20:58:42.314Z,17.90
2023-05-07T21:01:09.063Z,17.90
2023-05-07T21:03:35.908Z,17.90
2023-05-07T21:06:04.154Z,17.80
2023-05-07T21:08:31.485Z,17.70
2023-05-07T21:10:58.249Z,17.70
2023-05-07T21:13:25.139Z,17.70
2023-05-07T21:15:52.150Z,17.70
2023-05-07T21:18:19.605Z,17.60
2023-05-07T21:20:46.431Z,17.60
2023-05-07T21:23:13.202Z,17.70
2023-05-07T21:25:41.479Z,17.70
2023-05-07T21:28:09.310Z,17.80
2023-05-07T21:30:37.046Z,17.70
2023-05-07T21:33:06.283Z,17.70
2023-05-07T21:35:38.216Z,17.70
2023-05-07T21:38:05.063Z,17.70
2023-05-07T21:40:31.891Z,17.60
2023-05-07T21:43:00.044Z,17.50
2023-05-07T21:45:27.020Z,17.50
2023-05-07T21:47:53.828Z,17.50
2023-05-07T21:50:22.119Z,17.50
2023-05-07T21:52:49.502Z,17.50
2023-05-07T21:55:18.484Z,17.50
2023-05-07T21:57:53.697Z,17.50
2023-05-07T22:00:29.590Z,17.50
2023-05-07T22:02:56.458Z,17.50
2023-05-07T22:05:23.426Z,17.50
2023-05-07T22:07:50.151Z,17.40
2023-05-07T22:10:21.821Z,17.50
2023-05-07T22:12:48.804Z,17.60
2023-05-07T22:15:15.755Z,17.60
2023-05-07T22:17:42.523Z,17.60
2023-05-07T22:20:10.323Z,17.50
2023-05-07T22:22:54.107Z,17.60
2023-05-07T22:25:22.295Z,17.60
2023-05-07T22:27:50.050Z,17.60
2023-05-07T22:30:17.409Z,17.60
2023-05-07T22:32:45.070Z,17.50
2023-05-07T22:35:12.391Z,17.40
2023-05-07T22:37:39.399Z,17.50
2023-05-07T22:40:06.844Z,17.50
2023-05-07T22:42:33.682Z,17.50
2023-05-07T22:45:00.545Z,17.50
2023-05-07T22:47:30.832Z,17.40
2023-05-07T22:49:57.767Z,17.40
2023-05-07T22:52:24.946Z,17.30
2023-05-07T22:54:51.994Z,17.30
2023-05-07T22:57:18.786Z,17.20
2023-05-07T22:59:45.781Z,17.30
2023-05-07T23:02:12.957Z,17.30
2023-05-07T23:04:39.786Z,17.30
2023-05-07T23:07:06.782Z,17.40
2023-05-07T23:09:33.621Z,17.30
2023-05-07T23:12:00.423Z,17.20
2023-05-07T23:14:27.197Z,17.10
2023-05-07T23:16:54.123Z,17.00
2023-05-07T23:19:21.015Z,17.00
2023-05-07T23:21:48.206Z,17.10
2023-05-07T23:24:15.238Z,17.00
2023-05-07T23:26:42.097Z,17.00
2023-05-07T23:29:08.811Z,16.90
2023-05-07T23:31:35.726Z,16.90
2023-05-07T23:34:02.543Z,16.90
2023-05-07T23:36:29.619Z,16.80
2023-05-07T23:38:56.473Z,16.80
2023-05-07T23:41:23.227Z,16.80
2023-05-07T23:43:49.996Z,16.80
2023-05-07T23:46:16.858Z,16.70
2023-05-07T23:48:43.637Z,16.80
2023-05-07T23:51:10.512Z,16.80
2023-05-07T23:53:37.341Z,16.80
2023-05-07T23:56:04.278Z,16.80
2023-05-07T23:58:31.033Z,16.80
